<?xml version="1.0" encoding="utf-8"?>
<gpx xmlns:xsi="http://www.w3.org/2001/XMLSchema-instance" xmlns:xsd="http://www.w3.org/2001/XMLSchema" version="1.1" creator="Shapelink.com" xmlns="http://www.topografix.com/GPX/1/1" xmlns:gpxtpx="http://www.garmin.com/xmlschemas/TrackPointExtension/v1">
  <metadata>
    <name>Övrigt 1.76 km, 2020-07-06</name>
    <desc></desc>
    <author><name>Marian Moron</name></author> 
    <time>2020-07-06T21:07:47Z</time>
  </metadata>
  <trk>
    <name>Övrigt 1.76 km, 2020-07-06</name>
    <trkseg>
      <trkpt lat="51.229879936414" lon="4.458334034923">
        <ele>0</ele>
        <time>2020-07-06T21:07:47Z</time>
      </trkpt>
      <trkpt lat="51.229900136793" lon="4.458352223646">
        <ele>1</ele>
        <time>2020-07-06T21:08:12Z</time>
      </trkpt>
      <trkpt lat="51.229837524" lon="4.458587000665">
        <ele>6.6</ele>
        <time>2020-07-06T21:08:28Z</time>
      </trkpt>
      <trkpt lat="51.229896616395" lon="4.459058566359">
        <ele>6</ele>
        <time>2020-07-06T21:08:52Z</time>
      </trkpt>
      <trkpt lat="51.230124855532" lon="4.459203573229">
        <ele>0</ele>
        <time>2020-07-06T21:09:16Z</time>
      </trkpt>
      <trkpt lat="51.230373211229" lon="4.459224947074">
        <ele>2</ele>
        <time>2020-07-06T21:09:59Z</time>
      </trkpt>
      <trkpt lat="51.23037899474" lon="4.459268784411">
        <ele>2.4</ele>
        <time>2020-07-06T21:10:02Z</time>
      </trkpt>
      <trkpt lat="51.230537747926" lon="4.459783600709">
        <ele>3.4</ele>
        <time>2020-07-06T21:10:46Z</time>
      </trkpt>
      <trkpt lat="51.230633636862" lon="4.459937995307">
        <ele>3</ele>
        <time>2020-07-06T21:10:58Z</time>
      </trkpt>
      <trkpt lat="51.230699267139" lon="4.460013097131">
        <ele>2.8</ele>
        <time>2020-07-06T21:11:05Z</time>
      </trkpt>
      <trkpt lat="51.230744277942" lon="4.460706447899">
        <ele>1.8</ele>
        <time>2020-07-06T21:12:02Z</time>
      </trkpt>
      <trkpt lat="51.230725670124" lon="4.460735952187">
        <ele>1.8</ele>
        <time>2020-07-06T21:12:04Z</time>
      </trkpt>
      <trkpt lat="51.230357704714" lon="4.460879198858">
        <ele>1.2</ele>
        <time>2020-07-06T21:12:32Z</time>
      </trkpt>
      <trkpt lat="51.230328200426" lon="4.460897303762">
        <ele>1.2</ele>
        <time>2020-07-06T21:12:35Z</time>
      </trkpt>
      <trkpt lat="51.229956463161" lon="4.460978440554">
        <ele>0</ele>
        <time>2020-07-06T21:13:04Z</time>
      </trkpt>
      <trkpt lat="51.229584977353" lon="4.461280691868">
        <ele>0</ele>
        <time>2020-07-06T21:13:42Z</time>
      </trkpt>
      <trkpt lat="51.229664353946" lon="4.46131572821">
        <ele>0</ele>
        <time>2020-07-06T21:13:56Z</time>
      </trkpt>
      <trkpt lat="51.229729565128" lon="4.461224281681">
        <ele>0</ele>
        <time>2020-07-06T21:14:18Z</time>
      </trkpt>
      <trkpt lat="51.229812965033" lon="4.461276081823">
        <ele>0</ele>
        <time>2020-07-06T21:14:27Z</time>
      </trkpt>
      <trkpt lat="51.22984842047" lon="4.461459393976">
        <ele>0</ele>
        <time>2020-07-06T21:14:38Z</time>
      </trkpt>
      <trkpt lat="51.229941208103" lon="4.461879746261">
        <ele>0</ele>
        <time>2020-07-06T21:15:00Z</time>
      </trkpt>
      <trkpt lat="51.230008263303" lon="4.46208434844">
        <ele>0</ele>
        <time>2020-07-06T21:15:14Z</time>
      </trkpt>
      <trkpt lat="51.230119574935" lon="4.462404201744">
        <ele>0</ele>
        <time>2020-07-06T21:15:48Z</time>
      </trkpt>
      <trkpt lat="51.230280675053" lon="4.463050697691">
        <ele>3</ele>
        <time>2020-07-06T21:16:37Z</time>
      </trkpt>
      <trkpt lat="51.230327613693" lon="4.463179527494">
        <ele>2</ele>
        <time>2020-07-06T21:16:46Z</time>
      </trkpt>
      <trkpt lat="51.230303809097" lon="4.463877739764">
        <ele>0</ele>
        <time>2020-07-06T21:17:24Z</time>
      </trkpt>
      <trkpt lat="51.230283105804" lon="4.463943034765">
        <ele>0</ele>
        <time>2020-07-06T21:17:33Z</time>
      </trkpt>
      <trkpt lat="51.229998540299" lon="4.464270515598">
        <ele>2.2</ele>
        <time>2020-07-06T21:18:08Z</time>
      </trkpt>
      <trkpt lat="51.229763595642" lon="4.464178733793">
        <ele>11.8</ele>
        <time>2020-07-06T21:18:43Z</time>
      </trkpt>
      <trkpt lat="51.229573410331" lon="4.46420161638">
        <ele>13.4</ele>
        <time>2020-07-06T21:19:17Z</time>
      </trkpt>
      <trkpt lat="51.229232015544" lon="4.464357771177">
        <ele>3.4</ele>
        <time>2020-07-06T21:19:59Z</time>
      </trkpt>
      <trkpt lat="51.229140820472" lon="4.464384090343">
        <ele>3.4</ele>
        <time>2020-07-06T21:20:13Z</time>
      </trkpt>
      <trkpt lat="51.228798838952" lon="4.464407978758">
        <ele>3.2</ele>
        <time>2020-07-06T21:20:53Z</time>
      </trkpt>
      <trkpt lat="51.228544448287" lon="4.464025009747">
        <ele>0</ele>
        <time>2020-07-06T21:22:10Z</time>
      </trkpt>
      <trkpt lat="51.228530953428" lon="4.463967845189">
        <ele>0</ele>
        <time>2020-07-06T21:22:13Z</time>
      </trkpt>
      <trkpt lat="51.228356777546" lon="4.463330904608">
        <ele>6.8</ele>
        <time>2020-07-06T21:23:02Z</time>
      </trkpt>
      <trkpt lat="51.228264157551" lon="4.463245325409">
        <ele>3</ele>
        <time>2020-07-06T21:23:19Z</time>
      </trkpt>
      <trkpt lat="51.22816617314" lon="4.463221436994">
        <ele>0</ele>
        <time>2020-07-06T21:23:27Z</time>
      </trkpt>
      <trkpt lat="51.228011527085" lon="4.463137869451">
        <ele>1.2</ele>
        <time>2020-07-06T21:23:41Z</time>
      </trkpt>
      <trkpt lat="51.227848918225" lon="4.462827487694">
        <ele>2.2</ele>
        <time>2020-07-06T21:24:07Z</time>
      </trkpt>
      <trkpt lat="51.227829472217" lon="4.462172526028">
        <ele>0</ele>
        <time>2020-07-06T21:24:47Z</time>
      </trkpt>
      <trkpt lat="51.227857216306" lon="4.461456208854">
        <ele>1.6</ele>
        <time>2020-07-06T21:25:28Z</time>
      </trkpt>
      <trkpt lat="51.227836177737" lon="4.460782387913">
        <ele>0</ele>
        <time>2020-07-06T21:26:27Z</time>
      </trkpt>
      <trkpt lat="51.227833244072" lon="4.460762271353">
        <ele>0</ele>
        <time>2020-07-06T21:26:28Z</time>
      </trkpt>
      <trkpt lat="51.227950674491" lon="4.460481645341">
        <ele>1.2</ele>
        <time>2020-07-06T21:27:07Z</time>
      </trkpt>
      <trkpt lat="51.22806978129" lon="4.460379386161">
        <ele>2</ele>
        <time>2020-07-06T21:27:24Z</time>
      </trkpt>
      <trkpt lat="51.22820724445" lon="4.46031409116">
        <ele>0</ele>
        <time>2020-07-06T21:27:40Z</time>
      </trkpt>
      <trkpt lat="51.228348144189" lon="4.460100604167">
        <ele>5</ele>
        <time>2020-07-06T21:28:23Z</time>
      </trkpt>
      <trkpt lat="51.228352335139" lon="4.460066238377">
        <ele>5</ele>
        <time>2020-07-06T21:28:25Z</time>
      </trkpt>
      <trkpt lat="51.228497342009" lon="4.459425861217">
        <ele>0</ele>
        <time>2020-07-06T21:29:28Z</time>
      </trkpt>
      <trkpt lat="51.22860454651" lon="4.458753884294">
        <ele>4.2</ele>
        <time>2020-07-06T21:30:17Z</time>
      </trkpt>
      <trkpt lat="51.228551908178" lon="4.458048044495">
        <ele>1.8</ele>
        <time>2020-07-06T21:31:00Z</time>
      </trkpt>
      <trkpt lat="51.228531121066" lon="4.457776219478">
        <ele>4.6</ele>
        <time>2020-07-06T21:31:20Z</time>
      </trkpt>
      <trkpt lat="51.228501281502" lon="4.457347569112">
        <ele>8</ele>
        <time>2020-07-06T21:31:47Z</time>
      </trkpt>
      <trkpt lat="51.228570264539" lon="4.457295266056">
        <ele>2.2</ele>
        <time>2020-07-06T21:31:55Z</time>
      </trkpt>
      <trkpt lat="51.22864813239" lon="4.457228462313">
        <ele>0</ele>
        <time>2020-07-06T21:32:06Z</time>
      </trkpt>
      <trkpt lat="51.228699597256" lon="4.457188061555">
        <ele>0</ele>
        <time>2020-07-06T21:32:12Z</time>
      </trkpt>
      <trkpt lat="51.229129840183" lon="4.456920846583">
        <ele>1.8</ele>
        <time>2020-07-06T21:32:54Z</time>
      </trkpt>
      <trkpt lat="51.229243917842" lon="4.456852617917">
        <ele>4.6</ele>
        <time>2020-07-06T21:33:06Z</time>
      </trkpt>
      <trkpt lat="51.229295047432" lon="4.456833842461">
        <ele>4.6</ele>
        <time>2020-07-06T21:33:17Z</time>
      </trkpt>
      <trkpt lat="51.229461428147" lon="4.456750610194">
        <ele>3.6</ele>
        <time>2020-07-06T21:33:36Z</time>
      </trkpt>
      <trkpt lat="51.229646249042" lon="4.456657487285">
        <ele>3.8</ele>
        <time>2020-07-06T21:33:53Z</time>
      </trkpt>
      <trkpt lat="51.229810953377" lon="4.457259391524">
        <ele>7</ele>
        <time>2020-07-06T21:34:24Z</time>
      </trkpt>
      <trkpt lat="51.229805756599" lon="4.457461395314">
        <ele>4.6</ele>
        <time>2020-07-06T21:34:39Z</time>
      </trkpt>
      <trkpt lat="51.229828220091" lon="4.457583184321">
        <ele>2.2</ele>
        <time>2020-07-06T21:34:50Z</time>
      </trkpt>
      <trkpt lat="51.229815228146" lon="4.457830198914">
        <ele>0</ele>
        <time>2020-07-06T21:35:14Z</time>
      </trkpt>
      <trkpt lat="51.229395294956" lon="4.458020048949">
        <ele>5.6</ele>
        <time>2020-07-06T21:36:09Z</time>
      </trkpt>
      <trkpt lat="51.229335615828" lon="4.458067490503">
        <ele>2.8</ele>
        <time>2020-07-06T21:36:19Z</time>
      </trkpt>
      <trkpt lat="51.229373753473" lon="4.458062964277">
        <ele>0</ele>
        <time>2020-07-06T21:36:31Z</time>
      </trkpt>
      <trkpt lat="51.229678938452" lon="4.457940085623">
        <ele>0</ele>
        <time>2020-07-06T21:36:56Z</time>
      </trkpt>
      <trkpt lat="51.229672484389" lon="4.458032621799">
        <ele>0</ele>
        <time>2020-07-06T21:37:33Z</time>
      </trkpt>
    </trkseg>
  </trk>
</gpx>